createdAt,value
2023-02-05T00:01:25.884Z,26
2023-02-05T00:06:59.417Z,26
2023-02-05T00:12:33.008Z,28
2023-02-05T00:18:06.537Z,30
2023-02-05T00:23:40.094Z,27
2023-02-05T00:29:13.683Z,31
2023-02-05T00:34:47.283Z,27
2023-02-05T00:40:20.741Z,32
2023-02-05T00:45:46.201Z,31
2023-02-05T00:51:19.676Z,31
2023-02-05T00:56:53.222Z,31
2023-02-05T01:02:26.867Z,25
2023-02-05T01:08:00.421Z,34
2023-02-05T01:13:33.926Z,29
2023-02-05T01:19:07.529Z,29
2023-02-05T01:24:41.021Z,31
2023-02-05T01:30:14.600Z,26
2023-02-05T01:35:48.186Z,25
2023-02-05T01:41:21.690Z,31
2023-02-05T01:46:47.117Z,26
2023-02-05T01:52:20.620Z,26
2023-02-05T01:57:25.340Z,26
2023-02-05T02:02:58.846Z,25
2023-02-05T02:08:32.461Z,27
2023-02-05T02:14:05.979Z,33
2023-02-05T02:19:39.533Z,31
2023-02-05T02:25:13.130Z,29
2023-02-05T02:30:46.751Z,31
2023-02-05T02:36:20.188Z,29
2023-02-05T02:41:53.832Z,30
2023-02-05T02:47:19.125Z,28
2023-02-05T02:52:52.686Z,28
2023-02-05T02:58:26.289Z,24
2023-02-05T03:03:59.827Z,27
2023-02-05T03:09:33.367Z,28
2023-02-05T03:15:06.928Z,28
2023-02-05T03:20:40.494Z,26
2023-02-05T03:26:14.053Z,22
2023-02-05T03:31:47.730Z,30
2023-02-05T03:37:21.177Z,29
2023-02-05T03:42:46.509Z,29
2023-02-05T03:48:20.276Z,30
2023-02-05T03:53:53.639Z,25
2023-02-05T03:59:27.184Z,23
2023-02-05T04:05:00.723Z,26
2023-02-05T04:10:34.334Z,30
2023-02-05T04:16:07.907Z,24
2023-02-05T04:21:41.403Z,23
2023-02-05T04:26:46.204Z,26
2023-02-05T04:32:19.650Z,26
2023-02-05T04:37:53.222Z,26
2023-02-05T04:43:26.801Z,27
2023-02-05T04:48:52.210Z,29
2023-02-05T04:54:25.713Z,32
2023-02-05T04:59:59.275Z,27
2023-02-05T05:05:33.176Z,29
2023-02-05T05:11:06.359Z,28
2023-02-05T05:16:39.946Z,25
2023-02-05T05:22:13.475Z,30
2023-02-05T05:27:47.076Z,29
2023-02-05T05:33:20.616Z,33
2023-02-05T05:38:54.149Z,31
2023-02-05T05:44:56.568Z,26
2023-02-05T05:50:30.176Z,27
2023-02-05T05:56:03.631Z,26
2023-02-05T06:01:37.254Z,23
2023-02-05T06:07:10.809Z,19
2023-02-05T06:12:44.374Z,22
2023-02-05T06:18:17.988Z,18
2023-02-05T06:23:51.537Z,15
2023-02-05T06:29:25.036Z,20
2023-02-05T06:34:58.578Z,20
2023-02-05T06:40:32.315Z,21
2023-02-05T06:45:57.537Z,21
2023-02-05T06:51:31.080Z,22
2023-02-05T06:56:35.795Z,29
2023-02-05T07:02:09.312Z,26
2023-02-05T07:07:42.877Z,32
2023-02-05T07:13:16.465Z,31
2023-02-05T07:18:49.977Z,35
2023-02-05T07:24:23.543Z,29
2023-02-05T07:29:57.216Z,37
2023-02-05T07:35:30.642Z,39
2023-02-05T07:41:04.217Z,34
2023-02-05T07:46:29.719Z,39
2023-02-05T07:52:03.153Z,34
2023-02-05T07:57:36.707Z,40
2023-02-05T08:03:10.302Z,37
2023-02-05T08:08:43.831Z,47
2023-02-05T08:14:17.416Z,44
2023-02-05T08:19:50.922Z,39
2023-02-05T08:26:01.604Z,44
2023-02-05T08:31:35.056Z,42
2023-02-05T08:37:08.697Z,35
2023-02-05T08:42:42.218Z,35
2023-02-05T08:48:15.796Z,34
2023-02-05T08:53:49.345Z,33
2023-02-05T08:59:14.687Z,32
2023-02-05T09:04:48.275Z,30
2023-02-05T09:10:21.836Z,28
2023-02-05T09:15:55.354Z,20
2023-02-05T09:21:28.935Z,22
2023-02-05T09:26:33.629Z,25
2023-02-05T09:32:07.150Z,24
2023-02-05T09:37:40.709Z,22
2023-02-05T09:43:14.306Z,22
2023-02-05T09:48:47.818Z,20
2023-02-05T09:54:21.419Z,18
2023-02-05T09:59:54.980Z,13
2023-02-05T10:05:28.576Z,10
2023-02-05T10:10:53.863Z,9
2023-02-05T10:16:27.473Z,5
2023-02-05T10:22:00.991Z,5
2023-02-05T10:27:34.542Z,3
2023-02-05T10:33:08.178Z,3
2023-02-05T10:38:41.653Z,4
2023-02-05T10:44:15.234Z,2
2023-02-05T10:49:48.834Z,2
2023-02-05T10:55:22.353Z,3
2023-02-05T11:00:55.919Z,2
2023-02-05T11:06:29.501Z,4
2023-02-05T11:12:03.070Z,3
2023-02-05T11:18:05.440Z,5
2023-02-05T11:23:39.014Z,3
2023-02-05T11:29:12.542Z,4
2023-02-05T11:34:46.119Z,4
2023-02-05T11:40:19.747Z,5
2023-02-05T11:45:53.139Z,6
2023-02-05T11:51:26.790Z,4
2023-02-05T11:56:31.474Z,6
2023-02-05T12:02:05.026Z,6
2023-02-05T12:07:38.590Z,5
2023-02-05T12:13:12.152Z,7
2023-02-05T12:18:45.682Z,5
2023-02-05T12:24:19.252Z,7
2023-02-05T12:29:44.772Z,6
2023-02-05T12:35:18.175Z,6
2023-02-05T12:40:51.730Z,6
2023-02-05T12:46:25.291Z,7
2023-02-05T12:51:58.850Z,5
2023-02-05T12:57:32.399Z,5
2023-02-05T13:03:05.996Z,6
2023-02-05T13:08:39.508Z,5
2023-02-05T13:14:13.121Z,4
2023-02-05T13:19:46.651Z,6
2023-02-05T13:25:24.815Z,6
2023-02-05T13:30:45.700Z,7
2023-02-05T13:36:19.136Z,5
2023-02-05T13:41:52.674Z,4
2023-02-05T13:47:26.206Z,6
2023-02-05T13:52:59.789Z,4
2023-02-05T13:58:33.324Z,4
2023-02-05T14:04:06.888Z,4
2023-02-05T14:09:40.451Z,3
2023-02-05T14:15:14.027Z,2
2023-02-05T14:20:47.545Z,3
2023-02-05T14:25:52.286Z,3
2023-02-05T14:31:17.760Z,4
2023-02-05T14:36:51.172Z,3
2023-02-05T14:42:24.798Z,7
2023-02-05T14:47:58.285Z,4
2023-02-05T14:53:31.860Z,5
2023-02-05T14:59:05.449Z,3
2023-02-05T15:04:38.959Z,4
2023-02-05T15:10:12.745Z,3
2023-02-05T15:15:46.123Z,4
2023-02-05T15:21:19.654Z,3
2023-02-05T15:26:53.205Z,2
2023-02-05T15:32:18.579Z,3
2023-02-05T15:37:52.134Z,2
2023-02-05T15:43:25.684Z,3
2023-02-05T15:48:59.273Z,3
2023-02-05T15:54:32.783Z,5
2023-02-05T16:00:06.353Z,4
2023-02-05T16:05:39.933Z,4
2023-02-05T16:11:13.458Z,5
2023-02-05T16:16:47.043Z,3
2023-02-05T16:22:20.589Z,3
2023-02-05T16:27:54.200Z,3
2023-02-05T16:33:19.498Z,4
2023-02-05T16:38:53.068Z,3
2023-02-05T16:44:26.595Z,4
2023-02-05T16:50:00.347Z,3
2023-02-05T16:55:04.909Z,3
2023-02-05T17:00:38.774Z,3
2023-02-05T17:06:11.978Z,4
2023-02-05T17:11:45.571Z,7
2023-02-05T17:17:19.073Z,7
2023-02-05T17:22:52.659Z,7
2023-02-05T17:28:26.211Z,6
2023-02-05T17:33:51.578Z,10
2023-02-05T17:39:25.128Z,11
2023-02-05T17:44:58.706Z,6
2023-02-05T17:50:32.296Z,9
2023-02-05T17:56:05.771Z,9
2023-02-05T18:01:39.390Z,7
2023-02-05T18:07:12.887Z,9
2023-02-05T18:12:46.498Z,12
2023-02-05T18:18:20.029Z,13
2023-02-05T18:23:53.576Z,12
2023-02-05T18:29:27.136Z,11
2023-02-05T18:34:52.686Z,14
2023-02-05T18:40:26.029Z,13
2023-02-05T18:45:59.648Z,12
2023-02-05T18:51:33.203Z,18
2023-02-05T18:57:06.721Z,16
2023-02-05T19:02:40.263Z,19
2023-02-05T19:08:13.884Z,16
2023-02-05T19:13:47.386Z,14
2023-02-05T19:19:21.056Z,15
2023-02-05T19:24:25.753Z,17
2023-02-05T19:29:59.210Z,21
2023-02-05T19:35:24.550Z,14
2023-02-05T19:40:58.233Z,16
2023-02-05T19:46:31.857Z,12
2023-02-05T19:52:05.245Z,17
2023-02-05T19:57:38.817Z,13
2023-02-05T20:03:12.323Z,16
2023-02-05T20:08:45.888Z,19
2023-02-05T20:14:19.475Z,20
2023-02-05T20:19:59.647Z,21
2023-02-05T20:25:26.587Z,16
2023-02-05T20:31:00.358Z,14
2023-02-05T20:36:25.479Z,18
2023-02-05T20:41:59.059Z,23
2023-02-05T20:47:32.652Z,16
2023-02-05T20:53:06.187Z,20
2023-02-05T20:58:39.732Z,22
2023-02-05T21:04:13.307Z,17
2023-02-05T21:09:46.846Z,22
2023-02-05T21:15:20.412Z,14
2023-02-05T21:20:53.976Z,20
2023-02-05T21:26:27.527Z,21
2023-02-05T21:32:01.081Z,23
2023-02-05T21:37:26.465Z,21
2023-02-05T21:42:59.987Z,20
2023-02-05T21:48:33.559Z,18
2023-02-05T21:54:15.324Z,16
2023-02-05T21:59:48.840Z,21
2023-02-05T22:05:22.401Z,14
2023-02-05T22:10:56.043Z,14
2023-02-05T22:16:29.589Z,12
2023-02-05T22:22:03.063Z,18
2023-02-05T22:27:36.691Z,12
2023-02-05T22:33:10.146Z,11
2023-02-05T22:38:35.573Z,11
2023-02-05T22:44:09.318Z,13
2023-02-05T22:50:19.690Z,10
2023-02-05T22:55:53.308Z,11
2023-02-05T23:01:27.036Z,12
2023-02-05T23:07:00.399Z,13
2023-02-05T23:12:33.966Z,9
2023-02-05T23:18:07.547Z,9
2023-02-05T23:23:41.097Z,10
2023-02-05T23:29:14.645Z,9
2023-02-05T23:34:40.022Z,13
2023-02-05T23:40:13.576Z,9
2023-02-05T23:45:47.162Z,8
2023-02-05T23:51:20.706Z,7
2023-02-05T23:56:54.234Z,11
